Time;durP1;ratioP1;P1;durP2;ratioP2;P2;SDS_P1;SDS_P2;PMS_P1;PMS_P2;Temp;Humidity;BMP_temperature;BMP_pressure;BME280_temperature;BME280_humidity;BME280_pressure;Samples;Min_cycle;Max_cycle;Signal;HPM_P1;HPM_P2
2022/08/23 00:02:28;;;;;;;6.10;2.63;;;18.60;90.30;;;19.25;75.58;97920.63;5061994;28;20553;-79
2022/08/23 00:04:57;;;;;;;4.50;2.67;;;18.50;90.40;;;19.23;75.73;97922.69;5060565;28;20559;-79
2022/08/23 00:07:39;;;;;;;7.53;2.80;;;18.40;90.60;;;19.27;75.37;97923.00;5059226;28;20529;-80
2022/08/23 00:10:11;;;;;;;7.20;2.87;;;18.50;90.60;;;19.25;75.57;97914.50;5062639;28;20519;-79
2022/08/23 00:12:40;;;;;;;3.53;2.33;;;18.40;90.70;;;19.25;75.56;97915.31;5061551;28;21223;-79
2022/08/23 00:15:16;;;;;;;6.47;2.60;;;18.40;90.60;;;19.28;75.00;97906.88;5063023;28;20514;-79
2022/08/23 00:17:46;;;;;;;6.93;3.00;;;18.40;90.70;;;19.22;75.33;97899.91;5063166;28;20570;-80
2022/08/23 00:20:19;;;;;;;3.70;2.73;;;18.30;90.90;;;19.15;75.76;97909.88;5061606;28;20496;-80
2022/08/23 00:22:48;;;;;;;6.83;3.23;;;18.20;90.90;;;19.07;76.41;97907.63;5061533;28;20488;-79
2022/08/23 00:25:17;;;;;;;7.07;2.63;;;18.20;91.00;;;19.03;76.82;97906.53;5061779;28;20477;-79
2022/08/23 00:27:45;;;;;;;8.10;2.50;;;18.10;91.00;;;19.03;76.68;97906.53;5062548;28;20914;-79
2022/08/23 00:30:16;;;;;;;6.53;2.60;;;18.10;91.10;;;18.94;77.61;97914.09;5061345;28;20463;-79
2022/08/23 00:32:47;;;;;;;6.97;2.40;;;18.10;91.00;;;18.86;78.00;97911.84;5063021;28;20967;-79
2022/08/23 00:35:17;;;;;;;7.10;2.80;;;18.00;91.20;;;18.82;78.48;97904.63;5063998;28;20816;-80
2022/08/23 00:37:57;;;;;;;4.33;2.27;;;17.90;91.30;;;18.86;78.24;97911.03;5066429;28;20479;-79
2022/08/23 00:40:50;;;;;;;4.00;2.90;;;17.90;91.30;;;18.82;78.26;97909.94;5064791;28;20445;-79
2022/08/23 00:49:17;;;;;;;4.03;2.60;;;17.90;91.40;;;18.65;79.90;97920.53;5064466;28;20451;-79
2022/08/23 00:51:56;;;;;;;7.10;2.87;;;17.80;91.60;;;18.67;79.59;97918.47;5063887;28;20463;-79
2022/08/23 00:54:28;;;;;;;4.07;2.20;;;17.80;91.40;;;18.67;79.56;97913.16;5065611;28;20509;-79
2022/08/23 00:57:04;;;;;;;4.60;2.53;;;17.80;91.40;;;18.64;79.75;97912.84;5066394;28;20436;-79
2022/08/23 00:59:33;;;;;;;16.53;2.53;;;17.70;91.50;;;18.66;79.46;97919.50;5064632;28;20459;-80
2022/08/23 01:02:03;;;;;;;5.90;2.73;;;17.80;91.40;;;18.65;79.58;97922.38;5065454;28;20460;-79
2022/08/23 01:04:41;;;;;;;3.80;2.60;;;17.70;91.40;;;18.59;79.88;97916.22;5065591;28;20692;-79
2022/08/23 01:07:19;;;;;;;6.60;2.23;;;17.70;91.50;;;18.65;80.20;97919.72;5066507;28;20904;-79
2022/08/23 01:09:51;;;;;;;16.63;3.10;;;17.60;91.70;;;18.43;80.67;97917.78;5063923;28;20539;-79
2022/08/23 01:12:29;;;;;;;8.43;2.30;;;17.60;91.70;;;18.40;81.00;97917.44;5079572;28;20456;-80
2022/08/23 01:15:07;;;;;;;4.40;2.20;;;17.50;91.70;;;18.32;81.67;97917.84;5065464;28;20460;-80
2022/08/23 01:17:42;;;;;;;5.20;2.30;;;17.40;91.70;;;18.26;82.09;97914.31;5065659;28;20466;-79
2022/08/23 01:20:18;;;;;;;5.33;2.53;;;17.50;91.80;;;18.30;82.09;97915.44;5063513;28;20455;-79
2022/08/23 01:22:57;;;;;;;4.20;2.43;;;17.40;91.90;;;18.35;81.64;97920.84;5064052;28;20558;-79
2022/08/23 01:25:31;;;;;;;7.33;2.80;;;17.40;91.90;;;18.33;81.55;97924.75;5063397;28;20460;-79
2022/08/23 01:28:00;;;;;;;4.63;2.57;;;17.30;92.00;;;18.29;81.50;97927.06;5066521;28;20494;-80
2022/08/23 01:30:33;;;;;;;3.40;2.20;;;17.30;92.10;;;18.26;82.02;97927.53;5065072;28;20461;-79
2022/08/23 01:33:06;;;;;;;8.00;2.37;;;17.30;92.10;;;18.22;82.27;97931.72;5063962;28;20509;-79
2022/08/23 01:35:40;;;;;;;3.53;2.17;;;17.30;92.10;;;18.17;82.37;97934.28;5066406;28;20452;-80
2022/08/23 01:38:12;;;;;;;6.50;2.57;;;17.30;92.00;;;18.13;82.51;97943.72;5062186;28;20491;-79
2022/08/23 01:40:43;;;;;;;4.10;2.80;;;17.20;92.10;;;18.07;83.22;97956.06;5063008;28;20465;-79
2022/08/23 01:43:14;;;;;;;5.13;2.57;;;17.10;92.50;;;17.94;83.94;97945.78;5063234;28;20831;-79
2022/08/23 01:45:43;;;;;;;4.13;2.10;;;17.10;92.30;;;17.96;84.02;97946.34;5065520;28;20464;-80
2022/08/23 01:48:13;;;;;;;3.70;2.43;;;17.10;92.40;;;18.00;83.70;97944.03;5063204;28;20461;-79
2022/08/23 01:50:42;;;;;;;6.80;3.87;;;17.00;92.30;;;18.08;83.40;97936.50;5063169;28;20802;-79
2022/08/23 01:53:11;;;;;;;4.70;2.50;;;17.10;92.30;;;18.04;83.24;97942.50;5062500;28;20530;-80
2022/08/23 01:55:43;;;;;;;4.63;2.20;;;17.00;92.30;;;17.96;83.88;97940.25;5065341;28;20468;-79
2022/08/23 01:58:13;;;;;;;3.10;2.17;;;17.00;92.40;;;17.96;84.17;97948.19;5063852;28;20535;-80
2022/08/23 02:00:44;;;;;;;4.30;2.17;;;17.00;92.50;;;17.82;84.93;97944.19;5066795;28;20464;-80
2022/08/23 02:03:12;;;;;;;3.00;2.37;;;16.90;92.60;;;17.85;84.59;97935.78;5064582;28;20465;-79
2022/08/23 02:05:42;;;;;;;4.93;2.70;;;16.90;92.50;;;17.88;84.39;97940.59;5064597;28;20625;-79
2022/08/23 02:11:00;;;;;;;3.20;2.20;;;16.90;92.70;;;17.94;83.92;97939.69;5066199;28;20541;-79
2022/08/23 02:13:28;;;;;;;5.90;2.43;;;16.90;92.60;;;17.81;84.58;97939.94;5061742;28;20483;-79
2022/08/23 02:15:58;;;;;;;3.47;2.30;;;16.90;92.40;;;17.63;85.61;97933.00;5065723;28;20479;-79
2022/08/23 02:18:27;;;;;;;4.27;2.43;;;16.80;92.60;;;17.66;85.75;97937.81;5066707;28;20537;-79
2022/08/23 02:20:56;;;;;;;4.50;2.33;;;16.70;92.70;;;17.62;85.80;97946.44;5065116;28;20455;-79
2022/08/23 02:23:26;;;;;;;4.30;2.30;;;16.70;92.70;;;17.64;86.11;97949.66;5062802;28;20522;-79
2022/08/23 02:25:55;;;;;;;11.30;2.50;;;16.60;92.90;;;17.66;85.45;97942.31;5065942;28;20448;-79
2022/08/23 02:28:26;;;;;;;4.40;2.23;;;16.70;92.70;;;17.66;85.47;97953.69;5064804;28;20452;-79
2022/08/23 02:30:54;;;;;;;4.20;2.50;;;16.70;92.70;;;17.57;85.85;97955.09;5062808;28;20990;-79
2022/08/23 02:33:24;;;;;;;3.20;2.67;;;16.60;92.70;;;17.42;87.03;97958.19;5065978;28;21386;-79
2022/08/23 02:35:52;;;;;;;5.47;2.27;;;16.50;92.80;;;17.32;87.78;97959.81;5065423;28;20590;-80
2022/08/23 02:38:21;;;;;;;3.40;2.17;;;16.50;93.00;;;17.35;87.92;97957.53;5059804;28;20467;-80
2022/08/23 02:40:49;;;;;;;4.40;2.17;;;16.40;93.10;;;17.32;87.83;97965.13;5061119;28;20517;-79
2022/08/23 02:43:29;;;;;;;4.10;2.20;;;16.40;93.00;;;17.35;87.48;97962.81;5062993;28;20517;-79
2022/08/23 02:45:58;;;;;;;4.60;2.43;;;16.50;92.80;;;17.36;87.41;97964.41;5063214;28;20480;-80
2022/08/23 02:48:31;;;;;;;4.43;2.50;;;16.50;92.90;;;17.38;87.09;97959.69;5061900;28;20896;-80
2022/08/23 02:51:06;;;;;;;4.47;2.77;;;16.50;92.90;;;17.32;87.62;97962.47;5063806;28;20451;-79
2022/08/23 02:53:35;;;;;;;7.50;3.17;;;16.40;93.10;;;17.26;88.48;97966.81;5061281;28;20482;-79
2022/08/23 02:56:06;;;;;;;4.37;2.67;;;16.30;93.40;;;17.27;88.59;97965.00;5061769;28;20465;-79
2022/08/23 02:58:51;;;;;;;4.47;2.57;;;16.30;93.50;;;17.32;88.26;97965.13;5061315;28;20460;-79
2022/08/23 03:01:28;;;;;;;2.17;1.90;;;16.30;93.40;;;17.36;88.14;97971.53;5063904;28;20476;-80
2022/08/23 03:03:59;;;;;;;5.07;2.70;;;16.30;93.40;;;17.33;88.37;97974.63;5061207;28;20981;-79
2022/08/23 03:06:28;;;;;;;4.83;2.63;;;16.30;93.40;;;17.31;87.95;97977.53;5064485;28;20456;-79
2022/08/23 03:08:58;;;;;;;3.87;3.17;;;16.40;93.10;;;17.28;88.34;97964.78;5057810;28;20537;-79
2022/08/23 03:11:28;;;;;;;3.27;2.17;;;16.30;93.30;;;17.27;88.55;97970.28;5079830;28;20496;-89
2022/08/23 03:14:00;;;;;;;4.00;2.73;;;16.30;93.30;;;17.27;88.66;97971.09;5067711;28;20460;-80
2022/08/23 03:16:29;;;;;;;3.70;2.30;;;16.30;93.40;;;17.27;88.57;97975.56;5060118;28;20963;-80
2022/08/23 03:19:01;;;;;;;3.70;2.20;;;16.40;93.20;;;17.21;88.78;97974.66;5061583;28;20502;-79
2022/08/23 03:21:30;;;;;;;3.10;2.20;;;16.30;93.20;;;17.21;88.63;97972.03;5060583;28;20450;-79
2022/08/23 03:24:00;;;;;;;6.97;4.00;;;16.30;93.20;;;17.15;89.12;97978.19;5067412;28;20515;-79
2022/08/23 03:26:28;;;;;;;7.67;3.00;;;16.30;93.30;;;17.16;89.61;97979.81;5062708;28;21210;-80
2022/08/23 03:28:59;;;;;;;4.60;2.67;;;16.20;93.60;;;17.14;89.31;97981.91;5057524;28;20464;-80
2022/08/23 03:31:28;;;;;;;3.70;2.40;;;16.20;93.30;;;17.08;89.42;97982.81;5058226;28;20490;-80
2022/08/23 03:33:59;;;;;;;5.23;2.80;;;16.20;93.20;;;17.09;89.55;97979.94;5063603;28;20947;-80
2022/08/23 03:36:28;;;;;;;3.10;2.00;;;16.20;93.50;;;17.09;89.61;97977.28;5063925;28;20514;-80
2022/08/23 03:38:59;;;;;;;6.83;2.37;;;16.10;93.50;;;17.03;89.72;97980.88;5059782;28;20448;-80
2022/08/23 03:41:28;;;;;;;4.43;2.73;;;16.10;93.50;;;17.04;89.67;97979.03;5059228;28;20521;-80
2022/08/23 03:43:56;;;;;;;3.37;2.03;;;16.10;93.60;;;17.02;90.04;97979.25;5079247;28;20440;-80
2022/08/23 03:46:28;;;;;;;3.90;2.43;;;16.00;93.70;;;17.02;90.04;97979.25;5062580;28;21069;-80
2022/08/23 03:49:04;;;;;;;6.30;2.70;;;16.00;93.80;;;17.00;89.39;97980.53;5070219;28;20444;-82
2022/08/23 03:51:34;;;;;;;4.67;2.00;;;16.00;93.50;;;16.99;89.95;97984.19;5059107;28;20522;-81
2022/08/23 03:54:03;;;;;;;5.03;2.20;;;16.00;93.70;;;16.98;90.00;97987.84;5062657;28;20496;-80
2022/08/23 03:56:36;;;;;;;5.27;2.50;;;16.00;93.60;;;16.92;89.88;97986.94;5062050;28;20456;-80
2022/08/23 03:59:11;;;;;;;11.50;2.47;;;16.00;93.70;;;16.92;90.36;97994.88;5062988;28;20498;-80
2022/08/23 04:01:41;;;;;;;2.57;2.20;;;15.90;93.70;;;16.90;90.35;97996.13;5063659;28;20463;-79
2022/08/23 04:04:10;;;;;;;3.43;2.03;;;15.90;93.70;;;16.85;90.82;98001.28;5062021;28;20490;-81
2022/08/23 04:06:39;;;;;;;3.67;2.07;;;15.90;93.80;;;16.85;90.66;97998.66;5065216;28;20903;-80
2022/08/23 04:09:08;;;;;;;6.30;2.77;;;15.90;93.60;;;16.84;90.54;97997.03;5066382;28;20513;-80
2022/08/23 04:11:38;;;;;;;3.90;2.07;;;15.90;93.60;;;16.88;91.06;98003.47;5065096;28;20893;-80
2022/08/23 04:14:08;;;;;;;4.97;2.40;;;15.90;93.80;;;16.84;90.93;98007.59;5065337;28;20461;-80
2022/08/23 04:16:37;;;;;;;2.93;2.00;;;15.80;93.90;;;16.82;91.17;98001.75;5068324;28;20488;-80
2022/08/23 04:19:11;;;;;;;3.57;2.30;;;15.80;94.00;;;16.80;91.34;98009.09;5064849;28;20496;-80
2022/08/23 04:21:48;;;;;;;20.63;10.50;;;15.80;94.00;;;16.80;91.47;98011.75;5076288;28;20461;-82
2022/08/23 04:24:17;;;;;;;4.60;2.80;;;15.80;94.10;;;16.79;92.06;98015.41;5067991;28;20984;-80
2022/08/23 04:26:47;;;;;;;4.07;2.47;;;15.70;94.10;;;16.76;91.05;98014.03;5068100;28;20999;-80
2022/08/23 04:29:18;;;;;;;4.10;2.50;;;15.80;93.70;;;16.70;91.50;98016.75;5071903;28;21264;-79
2022/08/23 04:32:02;;;;;;;4.37;2.40;;;15.80;94.00;;;16.72;91.80;98025.28;5065291;28;20546;-80
2022/08/23 04:34:38;;;;;;;4.80;2.50;;;15.70;94.10;;;16.68;92.28;98027.56;5066101;28;20468;-78
2022/08/23 04:37:07;;;;;;;7.00;2.40;;;15.70;94.00;;;16.54;92.70;98024.28;5065730;28;20537;-79
2022/08/23 04:42:22;;;;;;;8.23;2.80;;;15.60;93.90;;;16.47;94.05;98028.03;5065446;28;20455;-78
2022/08/23 04:44:51;;;;;;;4.40;2.80;;;15.50;94.30;;;16.41;94.03;98034.22;5066753;28;20622;-78
2022/08/23 04:47:20;;;;;;;10.00;3.03;;;15.50;94.30;;;16.36;94.96;98039.34;5067094;28;20496;-78
2022/08/23 04:49:50;;;;;;;4.13;2.80;;;15.50;94.40;;;16.36;95.41;98034.88;5068024;28;20540;-78
2022/08/23 04:52:18;;;;;;;2.60;2.00;;;15.40;94.50;;;16.32;95.08;98052.19;5064684;28;20553;-78
2022/08/23 04:54:48;;;;;;;4.90;2.10;;;15.50;94.40;;;16.33;94.94;98048.53;5068069;28;20496;-78
2022/08/23 04:57:17;;;;;;;5.17;2.43;;;15.50;94.40;;;16.21;96.01;98047.66;5066829;28;20497;-79
2022/08/23 04:59:46;;;;;;;5.93;2.27;;;15.40;94.50;;;16.13;97.42;98047.16;5066410;28;20484;-78
2022/08/23 05:02:14;;;;;;;7.10;3.00;;;15.30;94.70;;;16.04;98.14;98044.03;5068822;28;20506;-78
2022/08/23 05:04:43;;;;;;;3.70;2.40;;;15.30;94.70;;;16.09;98.20;98047.63;5067283;28;20452;-78
2022/08/23 05:07:14;;;;;;;4.80;2.70;;;15.40;94.70;;;16.04;98.63;98055.38;5066452;28;20497;-78
2022/08/23 05:09:42;;;;;;;5.60;2.70;;;15.20;94.90;;;16.10;98.70;98058.97;5065264;28;20522;-79
2022/08/23 05:12:11;;;;;;;7.73;2.53;;;15.20;95.10;;;16.09;98.50;98068.72;5066365;28;20465;-78
2022/08/23 05:14:40;;;;;;;10.10;2.57;;;15.20;95.00;;;16.12;98.71;98062.19;5067334;28;20460;-78
2022/08/23 05:17:15;;;;;;;5.37;2.70;;;15.20;95.10;;;16.04;99.13;98068.56;5066629;28;20467;-78
2022/08/23 05:19:44;;;;;;;5.23;2.90;;;15.20;95.00;;;16.06;99.20;98068.38;5068583;28;20456;-79
2022/08/23 05:22:16;;;;;;;3.00;1.93;;;15.30;94.90;;;16.09;98.93;98074.00;5067676;28;20445;-78
2022/08/23 05:24:44;;;;;;;7.93;2.53;;;15.20;95.00;;;16.13;99.17;98074.38;5063584;28;21435;-78
2022/08/23 05:27:14;;;;;;;6.33;2.60;;;15.20;95.10;;;16.18;98.92;98071.03;5066418;28;20496;-78
2022/08/23 05:29:43;;;;;;;3.63;2.50;;;15.20;95.10;;;16.21;98.73;98074.03;5067327;28;20467;-78
2022/08/23 05:32:11;;;;;;;4.57;2.13;;;15.30;95.20;;;16.30;98.32;98075.38;5066085;28;20476;-78
2022/08/23 05:34:41;;;;;;;5.40;2.00;;;15.30;95.20;;;16.33;98.20;98079.38;5065115;28;20813;-79
2022/08/23 05:37:10;;;;;;;6.80;2.70;;;15.40;95.30;;;16.38;97.96;98082.97;5068384;28;20525;-78
2022/08/23 05:39:41;;;;;;;15.13;2.90;;;15.40;95.00;;;16.43;97.13;98085.75;5063053;28;20457;-79
2022/08/23 05:42:15;;;;;;;13.17;3.10;;;15.40;95.00;;;16.49;97.11;98090.13;5067086;28;21009;-78
2022/08/23 05:44:45;;;;;;;5.60;2.77;;;15.50;95.20;;;16.52;96.34;98094.19;5066810;28;20456;-78
2022/08/23 05:47:16;;;;;;;7.00;3.10;;;15.60;94.80;;;16.57;95.68;98087.22;5065009;28;20970;-78
2022/08/23 05:49:51;;;;;;;7.40;2.80;;;15.60;94.60;;;16.60;95.08;98081.47;5067344;28;20483;-78
2022/08/23 05:52:20;;;;;;;8.23;3.23;;;15.60;94.50;;;16.64;95.07;98091.59;5063875;28;20487;-78
2022/08/23 05:54:50;;;;;;;4.20;2.10;;;15.70;94.40;;;16.66;94.96;98100.13;5068024;28;21090;-78
2022/08/23 05:57:19;;;;;;;7.23;3.30;;;15.70;94.50;;;16.62;94.98;98094.47;5067710;28;20510;-78
2022/08/23 05:59:48;;;;;;;6.37;3.03;;;15.70;94.60;;;16.57;95.70;98092.50;5067246;28;20496;-78
2022/08/23 06:02:16;;;;;;;6.23;2.50;;;15.70;94.70;;;16.54;96.57;98097.38;5065387;28;20500;-78
2022/08/23 06:04:45;;;;;;;5.47;2.63;;;15.70;94.80;;;16.58;97.03;98096.75;5064918;28;20464;-78
2022/08/23 06:07:15;;;;;;;3.43;2.17;;;15.70;94.90;;;16.64;96.98;98094.25;5065542;28;20565;-78
2022/08/23 06:09:44;;;;;;;5.23;2.97;;;15.70;94.90;;;16.67;96.95;98101.72;5063874;28;20551;-78
2022/08/23 06:12:14;;;;;;;4.23;2.60;;;15.70;95.00;;;16.72;96.68;98102.66;5065277;28;20518;-78
2022/08/23 06:14:44;;;;;;;5.00;2.70;;;15.70;94.90;;;16.74;96.21;98103.22;5065431;28;20464;-79
2022/08/23 06:17:13;;;;;;;3.33;2.20;;;15.80;94.70;;;16.77;95.95;98102.78;5067995;28;20468;-78
2022/08/23 06:19:41;;;;;;;4.87;2.73;;;15.80;94.80;;;16.83;96.07;98111.66;5065130;28;20465;-79
2022/08/23 06:22:10;;;;;;;4.40;2.37;;;15.90;94.70;;;16.86;95.80;98101.44;5065687;28;20479;-78
2022/08/23 06:24:38;;;;;;;7.93;2.93;;;15.90;94.80;;;16.87;95.72;98108.31;5063817;28;20477;-78
2022/08/23 06:27:07;;;;;;;4.63;2.40;;;15.90;94.70;;;16.91;95.73;98113.97;5066918;28;20549;-78
2022/08/23 06:29:38;;;;;;;2.93;2.43;;;16.00;94.70;;;16.96;95.32;98098.25;5066322;28;20447;-78
2022/08/23 06:32:07;;;;;;;5.67;3.20;;;16.00;94.70;;;17.02;94.94;98103.44;5063845;28;20472;-78
2022/08/23 06:34:38;;;;;;;2.80;1.93;;;16.10;94.70;;;17.10;94.85;98102.31;5064042;28;20468;-78
2022/08/23 06:37:11;;;;;;;8.70;2.87;;;16.10;94.80;;;17.18;94.74;98104.59;5064449;28;20456;-78
2022/08/23 06:39:42;;;;;;;6.43;2.23;;;16.20;94.70;;;17.23;94.37;98112.66;5064451;28;20972;-79
2022/08/23 06:42:14;;;;;;;7.80;2.80;;;16.20;94.70;;;17.32;93.86;98108.63;5064209;28;20448;-78
2022/08/23 06:45:06;;;;;;;4.57;2.53;;;16.30;94.60;;;17.39;93.76;98106.69;5064693;28;21012;-78
2022/08/23 06:47:34;;;;;;;5.17;2.77;;;16.40;94.60;;;17.43;93.24;98113.13;5065489;28;21284;-78
2022/08/23 06:50:04;;;;;;;7.57;2.63;;;16.50;94.50;;;17.48;93.04;98112.47;5064148;28;20529;-78
2022/08/23 06:52:33;;;;;;;7.50;2.53;;;16.50;94.40;;;17.52;92.94;98110.97;5063176;28;20460;-78
2022/08/23 06:55:02;;;;;;;3.67;2.40;;;16.60;94.30;;;17.58;92.50;98110.88;5064891;28;20461;-78
2022/08/23 06:57:32;;;;;;;3.50;2.10;;;16.60;94.20;;;17.64;91.99;98108.34;5065310;28;20449;-78
2022/08/23 07:00:00;;;;;;;5.33;2.80;;;16.70;94.10;;;17.70;91.50;98108.22;5066543;28;20452;-78
2022/08/23 07:02:31;;;;;;;7.50;2.67;;;16.80;94.20;;;17.76;91.64;98112.63;5064131;28;20460;-78
2022/08/23 07:04:59;;;;;;;5.67;2.80;;;16.80;94.10;;;17.83;91.19;98107.19;5064160;28;20552;-78
2022/08/23 07:07:29;;;;;;;7.43;3.03;;;16.90;94.00;;;17.88;90.83;98104.66;5064392;28;20853;-78
2022/08/23 07:10:12;;;;;;;7.03;3.17;;;16.90;93.90;;;17.96;90.38;98104.31;5063876;28;20487;-78
2022/08/23 07:12:42;;;;;;;6.63;3.30;;;17.00;93.90;;;18.02;90.44;98106.81;5065264;28;20526;-78
2022/08/23 07:15:12;;;;;;;6.80;2.67;;;17.10;94.10;;;18.09;90.70;98101.41;5064029;28;20464;-78
2022/08/23 07:17:42;;;;;;;9.27;2.93;;;17.10;94.00;;;18.16;90.12;98107.38;5064463;28;20518;-80
2022/08/23 07:20:11;;;;;;;5.67;3.10;;;17.20;94.00;;;18.23;89.88;98102.75;5063405;28;20456;-79
2022/08/23 07:22:40;;;;;;;16.80;2.83;;;17.30;93.90;;;18.30;89.47;98108.72;5064590;28;20482;-78
2022/08/23 07:25:10;;;;;;;5.70;2.70;;;17.40;93.90;;;18.38;89.08;98105.72;5065626;28;21288;-78
2022/08/23 07:27:38;;;;;;;16.20;3.10;;;17.40;93.70;;;18.45;88.74;98105.56;5064886;28;20492;-79
2022/08/23 07:30:09;;;;;;;3.67;2.30;;;17.50;93.70;;;18.51;88.45;98105.47;5064208;28;20906;-78
2022/08/23 07:32:39;;;;;;;6.80;3.00;;;17.60;93.60;;;18.56;88.04;98110.88;5065592;28;20526;-79
2022/08/23 07:35:10;;;;;;;4.77;2.47;;;17.70;93.70;;;18.67;87.95;98119.00;5063272;28;20467;-78
2022/08/23 07:37:39;;;;;;;6.17;2.70;;;17.70;93.60;;;18.73;87.34;98118.03;5063119;28;20450;-78
2022/08/23 07:40:12;;;;;;;4.83;2.67;;;17.80;93.60;;;18.81;87.13;98115.03;5063110;28;20461;-78
2022/08/23 07:42:48;;;;;;;12.07;2.67;;;17.90;93.50;;;18.87;86.59;98116.72;5064272;28;20514;-78
2022/08/23 07:45:17;;;;;;;5.53;2.37;;;18.00;93.30;;;18.94;86.44;98118.19;5063227;28;20567;-78
2022/08/23 07:47:50;;;;;;;7.90;2.53;;;18.10;93.30;;;19.01;85.84;98120.69;5063507;28;20582;-78
2022/08/23 07:50:22;;;;;;;5.30;2.30;;;18.20;93.20;;;19.07;85.34;98109.91;5061797;28;20472;-79
2022/08/23 07:52:50;;;;;;;4.13;2.23;;;18.20;93.00;;;19.14;85.29;98109.75;5063432;28;20469;-78
2022/08/23 07:55:20;;;;;;;4.97;2.70;;;18.30;93.00;;;19.20;85.00;98107.97;5064144;28;20478;-79
2022/08/23 07:57:49;;;;;;;4.60;2.60;;;18.30;92.90;;;19.27;84.43;98116.59;5065896;28;20448;-79
2022/08/23 08:00:19;;;;;;;4.90;2.50;;;18.40;92.90;;;19.34;84.08;98123.34;5064236;28;20521;-79
2022/08/23 08:02:47;;;;;;;6.30;2.97;;;18.50;92.60;;;19.41;83.79;98124.03;5065216;28;20445;-78
2022/08/23 08:05:18;;;;;;;5.07;2.80;;;18.60;92.70;;;19.48;83.12;98119.34;5064157;28;20959;-78
2022/08/23 08:07:49;;;;;;;6.03;2.37;;;18.60;92.50;;;19.55;82.42;98122.66;5062917;28;20476;-79
2022/08/23 08:10:19;;;;;;;3.97;2.30;;;18.80;92.50;;;19.63;81.88;98118.78;5062784;28;20480;-79
2022/08/23 08:12:48;;;;;;;9.30;2.83;;;18.90;92.40;;;19.71;81.48;98120.22;5064253;28;20963;-78
2022/08/23 08:15:17;;;;;;;5.87;3.90;;;18.90;92.20;;;19.79;81.31;98119.81;5064967;28;20452;-78
2022/08/23 08:17:48;;;;;;;2.70;2.17;;;19.00;92.10;;;19.86;80.54;98123.09;5063491;28;20475;-78
2022/08/23 08:20:17;;;;;;;6.07;2.40;;;19.10;92.00;;;19.94;79.88;98126.13;5064530;28;20476;-78
2022/08/23 08:22:47;;;;;;;6.73;2.63;;;19.20;92.00;;;20.02;79.35;98111.66;5062418;28;20475;-78
2022/08/23 08:25:28;;;;;;;6.20;2.47;;;19.30;91.90;;;20.09;78.60;98120.25;5063085;28;20476;-79
2022/08/23 08:27:59;;;;;;;3.27;2.43;;;19.40;91.70;;;20.16;78.24;98120.88;5061425;28;21073;-78
2022/08/23 08:30:28;;;;;;;7.30;2.20;;;19.40;91.60;;;20.25;77.54;98129.19;5063453;28;20452;-78
2022/08/23 08:32:57;;;;;;;5.93;2.57;;;19.50;91.50;;;20.35;76.74;98124.03;5062157;28;20503;-78
2022/08/23 08:35:27;;;;;;;6.50;2.53;;;19.60;90.80;;;20.46;75.53;98128.41;5063200;28;20449;-78
2022/08/23 08:37:57;;;;;;;9.30;2.80;;;19.70;91.10;;;20.52;75.19;98117.59;5063118;28;21085;-79
2022/08/23 08:40:38;;;;;;;3.73;2.53;;;19.80;91.00;;;20.62;74.67;98122.22;5063407;28;20461;-79
2022/08/23 08:43:30;;;;;;;3.60;2.00;;;20.00;91.00;;;20.73;74.09;98117.81;5064094;28;20487;-79
2022/08/23 08:46:08;;;;;;;8.70;2.23;;;20.10;90.70;;;20.83;73.59;98107.28;5062812;28;20456;-78
2022/08/23 08:48:45;;;;;;;8.83;2.40;;;20.20;90.80;;;20.95;72.50;98115.91;5062428;28;20483;-79
2022/08/23 08:51:37;;;;;;;5.03;2.90;;;20.40;90.40;;;21.05;71.71;98114.16;5067196;28;20451;-79
2022/08/23 08:54:15;;;;;;;4.80;2.30;;;20.50;90.40;;;21.16;72.04;98112.41;5067021;28;20559;-78
2022/08/23 08:56:52;;;;;;;5.40;2.47;;;20.50;90.40;;;21.27;71.17;98108.78;5066428;28;20467;-79
2022/08/23 08:59:27;;;;;;;7.60;2.60;;;20.60;90.30;;;21.36;70.21;98112.59;5067163;28;20533;-79
2022/08/23 09:01:58;;;;;;;6.20;2.63;;;20.80;90.00;;;21.46;70.40;98111.84;5067259;28;20463;-79
2022/08/23 09:04:27;;;;;;;7.00;2.23;;;20.80;89.80;;;21.57;69.24;98111.69;5067077;28;20468;-79
2022/08/23 09:07:07;;;;;;;3.73;2.37;;;20.90;89.70;;;21.66;69.17;98100.56;5067759;28;21440;-79
2022/08/23 09:10:16;;;;;;;3.00;2.20;;;21.00;89.70;;;21.75;69.06;98109.66;5065709;28;20480;-79
2022/08/23 09:13:02;;;;;;;9.30;2.50;;;21.10;89.70;;;21.85;68.33;98112.38;5066910;28;20464;-79
2022/08/23 09:15:41;;;;;;;6.47;3.60;;;21.20;89.80;;;21.95;68.16;98112.47;5067615;28;20882;-78
2022/08/23 09:18:14;;;;;;;5.43;2.40;;;21.30;89.40;;;22.02;67.65;98113.84;5065424;28;20504;-78
2022/08/23 09:20:47;;;;;;;7.27;2.50;;;21.40;89.40;;;22.09;66.85;98108.28;5065680;28;20480;-79
2022/08/23 09:23:23;;;;;;;3.07;2.10;;;21.50;88.90;;;22.18;65.76;98114.72;5068906;28;20959;-79
2022/08/23 09:25:59;;;;;;;3.07;2.30;;;21.60;88.30;;;22.26;65.55;98108.88;5064879;28;20581;-79
2022/08/23 09:28:36;;;;;;;5.67;2.63;;;21.70;88.10;;;22.36;65.30;98100.94;5065910;28;20525;-79
2022/08/23 09:31:06;;;;;;;4.90;2.50;;;21.80;88.00;;;22.45;64.59;98106.56;5067202;28;20444;-79
2022/08/23 09:33:44;;;;;;;7.80;2.77;;;21.90;87.90;;;22.56;63.44;98106.31;5066403;28;20444;-78
2022/08/23 09:36:22;;;;;;;4.13;2.33;;;22.00;86.90;;;22.71;61.85;98107.47;5064531;28;21023;-79
2022/08/23 09:38:53;;;;;;;5.23;2.10;;;22.20;86.00;;;22.80;61.57;98100.56;5064559;28;20468;-79
2022/08/23 09:41:28;;;;;;;3.13;1.90;;;22.30;86.20;;;22.91;59.94;98102.97;5066048;28;20472;-79
2022/08/23 09:44:00;;;;;;;9.33;2.20;;;22.40;85.20;;;23.00;60.31;98100.59;5066691;28;20494;-79
2022/08/23 09:46:37;;;;;;;4.80;2.50;;;22.40;85.50;;;23.08;59.71;98097.41;5066310;28;20465;-79
2022/08/23 09:49:28;;;;;;;5.03;2.30;;;22.50;85.20;;;23.16;58.65;98096.03;5063061;28;20492;-79
2022/08/23 09:52:02;;;;;;;3.93;2.00;;;22.60;84.60;;;23.24;58.34;98100.88;5064137;28;20472;-78
2022/08/23 09:54:35;;;;;;;10.33;1.67;;;22.70;84.30;;;23.31;56.77;98102.19;5064905;28;20541;-78
2022/08/23 09:57:09;;;;;;;5.87;2.17;;;22.80;83.20;;;23.40;55.68;98103.25;5066157;28;20458;-79
2022/08/23 09:59:43;;;;;;;5.27;2.23;;;22.90;82.30;;;23.48;55.42;98096.63;5065396;28;20966;-79
2022/08/23 10:02:25;;;;;;;3.23;2.07;;;23.00;82.20;;;23.57;55.25;98092.31;5065504;28;20514;-78
2022/08/23 10:05:04;;;;;;;2.93;1.97;;;23.00;81.80;;;23.63;53.94;98088.59;5064981;28;20536;-79
2022/08/23 10:07:40;;;;;;;4.37;2.00;;;23.10;81.30;;;23.71;53.80;98089.88;5065108;28;20468;-79
2022/08/23 10:10:31;;;;;;;3.80;1.73;;;23.10;81.20;;;23.87;51.64;98094.16;5065346;28;20564;-79
2022/08/23 10:13:03;;;;;;;4.10;1.97;;;23.40;79.10;;;24.07;51.69;98096.75;5064704;28;20449;-79
2022/08/23 10:15:53;;;;;;;4.23;1.60;;;23.60;78.80;;;24.19;51.34;98091.94;5065316;28;20461;-79
2022/08/23 10:18:46;;;;;;;5.57;1.90;;;23.60;79.50;;;24.27;51.17;98099.38;5066988;28;20464;-78
2022/08/23 10:21:23;;;;;;;17.53;2.43;;;23.60;79.00;;;24.33;50.24;98092.94;5065345;28;20469;-79
2022/08/23 10:24:14;;;;;;;4.60;2.23;;;23.70;78.70;;;24.41;49.74;98088.88;5064319;28;21021;-79
2022/08/23 10:27:02;;;;;;;4.13;1.97;;;23.80;78.30;;;24.45;50.34;98082.72;5067104;28;20963;-79
2022/08/23 10:29:39;;;;;;;2.80;1.90;;;23.90;78.60;;;24.49;50.39;98081.09;5066800;28;21018;-79
2022/08/23 10:32:25;;;;;;;2.87;2.03;;;23.90;78.90;;;24.51;50.46;98084.28;5063784;28;20496;-79
2022/08/23 10:35:18;;;;;;;6.80;2.03;;;23.90;78.70;;;24.54;50.49;98083.72;5063409;28;20484;-79
2022/08/23 10:38:03;;;;;;;6.40;2.33;;;24.00;79.10;;;24.58;50.30;98081.31;5064047;28;20605;-78
2022/08/23 10:40:42;;;;;;;7.40;2.20;;;24.00;79.10;;;24.62;50.68;98077.00;5064708;28;20509;-79
2022/08/23 10:43:25;;;;;;;8.90;2.07;;;24.00;79.30;;;24.67;50.74;98077.00;5065971;28;20448;-79
2022/08/23 10:46:00;;;;;;;4.47;2.20;;;24.10;79.40;;;24.72;50.52;98076.13;5064945;28;20518;-78
2022/08/23 10:48:36;;;;;;;8.73;2.60;;;24.10;79.00;;;24.79;49.64;98074.75;5065160;28;20507;-79
2022/08/23 10:51:19;;;;;;;4.07;2.30;;;24.30;78.10;;;24.87;49.17;98073.41;5065191;28;20474;-79
2022/08/23 10:54:06;;;;;;;10.17;2.67;;;24.40;77.90;;;24.94;49.05;98068.53;5064080;28;20460;-79